sensor_id;sensor_type;location;lat;lon;timestamp;pressure;altitude;pressure_sealevel;temperature;humidity
72640;BME280;60683;51.730;8.762;2023-07-31T00:00:46;99876.44;;;15.31;100.00
72640;BME280;60683;51.730;8.762;2023-07-31T00:03:26;99862.06;;;15.35;100.00
72640;BME280;60683;51.730;8.762;2023-07-31T00:05:54;99863.97;;;15.35;100.00
72640;BME280;60683;51.730;8.762;2023-07-31T00:08:21;99861.00;;;15.31;100.00
72640;BME280;60683;51.730;8.762;2023-07-31T00:10:52;99846.63;;;15.20;100.00
72640;BME280;60683;51.730;8.762;2023-07-31T00:13:19;99852.31;;;15.24;100.00
72640;BME280;60683;51.730;8.762;2023-07-31T00:15:47;99848.53;;;15.15;100.00
72640;BME280;60683;51.730;8.762;2023-07-31T00:18:14;99844.19;;;15.14;100.00
72640;BME280;60683;51.730;8.762;2023-07-31T00:20:42;99839.88;;;15.18;100.00
72640;BME280;60683;51.730;8.762;2023-07-31T00:23:10;99836.06;;;15.24;100.00
72640;BME280;60683;51.730;8.762;2023-07-31T00:25:37;99832.81;;;15.22;100.00
72640;BME280;60683;51.730;8.762;2023-07-31T00:28:06;99827.41;;;15.22;100.00
72640;BME280;60683;51.730;8.762;2023-07-31T00:30:34;99831.19;;;15.26;100.00
72640;BME280;60683;51.730;8.762;2023-07-31T00:33:01;99828.50;;;15.31;100.00
72640;BME280;60683;51.730;8.762;2023-07-31T00:35:29;99824.69;;;15.32;100.00
72640;BME280;60683;51.730;8.762;2023-07-31T00:37:57;99819.56;;;15.36;100.00
72640;BME280;60683;51.730;8.762;2023-07-31T00:40:25;99816.56;;;15.32;100.00
72640;BME280;60683;51.730;8.762;2023-07-31T00:42:53;99817.94;;;15.35;100.00
72640;BME280;60683;51.730;8.762;2023-07-31T00:45:23;99817.94;;;15.35;100.00
72640;BME280;60683;51.730;8.762;2023-07-31T00:47:53;99816.84;;;15.41;100.00
72640;BME280;60683;51.730;8.762;2023-07-31T00:50:22;99806.28;;;15.39;100.00
72640;BME280;60683;51.730;8.762;2023-07-31T00:52:50;99807.38;;;15.38;100.00
72640;BME280;60683;51.730;8.762;2023-07-31T00:55:18;99805.19;;;15.40;100.00
72640;BME280;60683;51.730;8.762;2023-07-31T00:57:46;99797.34;;;15.44;100.00
72640;BME280;60683;51.730;8.762;2023-07-31T01:00:13;99793.81;;;15.43;100.00
72640;BME280;60683;51.730;8.762;2023-07-31T01:02:43;99791.91;;;15.44;100.00
72640;BME280;60683;51.730;8.762;2023-07-31T01:05:11;99795.44;;;15.44;100.00
72640;BME280;60683;51.730;8.762;2023-07-31T01:07:45;99783.53;;;15.40;100.00
72640;BME280;60683;51.730;8.762;2023-07-31T01:10:20;99786.22;;;15.45;100.00
72640;BME280;60683;51.730;8.762;2023-07-31T01:12:50;99779.19;;;15.44;100.00
72640;BME280;60683;51.730;8.762;2023-07-31T01:15:18;99779.72;;;15.46;100.00
72640;BME280;60683;51.730;8.762;2023-07-31T01:17:47;99784.59;;;15.49;100.00
72640;BME280;60683;51.730;8.762;2023-07-31T01:20:17;99784.59;;;15.49;100.00
72640;BME280;60683;51.730;8.762;2023-07-31T01:26:11;99790.03;;;15.39;100.00
72640;BME280;60683;51.730;8.762;2023-07-31T01:28:47;99781.91;;;15.39;100.00
72640;BME280;60683;51.730;8.762;2023-07-31T01:31:22;99784.63;;;15.34;100.00
72640;BME280;60683;51.730;8.762;2023-07-31T01:33:50;99782.72;;;15.35;100.00
72640;BME280;60683;51.730;8.762;2023-07-31T01:36:20;99789.78;;;15.31;100.00
72640;BME280;60683;51.730;8.762;2023-07-31T01:38:47;99778.13;;;15.30;100.00
72640;BME280;60683;51.730;8.762;2023-07-31T01:41:18;99790.59;;;15.26;100.00
72640;BME280;60683;51.730;8.762;2023-07-31T01:43:45;99786.25;;;15.25;100.00
72640;BME280;60683;51.730;8.762;2023-07-31T01:46:13;99781.66;;;15.26;100.00
72640;BME280;60683;51.730;8.762;2023-07-31T01:48:41;99781.38;;;15.22;100.00
72640;BME280;60683;51.730;8.762;2023-07-31T01:51:08;99779.22;;;15.24;100.00
72640;BME280;60683;51.730;8.762;2023-07-31T01:53:36;99777.84;;;15.21;100.00
72640;BME280;60683;51.730;8.762;2023-07-31T01:56:04;99783.81;;;15.18;100.00
72640;BME280;60683;51.730;8.762;2023-07-31T01:58:33;99781.91;;;15.19;100.00
72640;BME280;60683;51.730;8.762;2023-07-31T02:01:00;99780.56;;;15.16;100.00
72640;BME280;60683;51.730;8.762;2023-07-31T02:03:28;99781.94;;;15.14;100.00
72640;BME280;60683;51.730;8.762;2023-07-31T02:05:55;99778.41;;;15.18;100.00
72640;BME280;60683;51.730;8.762;2023-07-31T02:08:23;99771.91;;;15.14;100.00
72640;BME280;60683;51.730;8.762;2023-07-31T02:10:51;99776.22;;;15.20;100.00
72640;BME280;60683;51.730;8.762;2023-07-31T02:13:19;99772.47;;;14.96;100.00
72640;BME280;60683;51.730;8.762;2023-07-31T02:15:48;99778.97;;;14.90;100.00
72640;BME280;60683;51.730;8.762;2023-07-31T02:18:16;99771.66;;;14.80;100.00
72640;BME280;60683;51.730;8.762;2023-07-31T02:20:48;99770.00;;;14.69;100.00
72640;BME280;60683;51.730;8.762;2023-07-31T02:23:17;99778.41;;;14.68;100.00
72640;BME280;60683;51.730;8.762;2023-07-31T02:25:44;99773.81;;;14.68;100.00
72640;BME280;60683;51.730;8.762;2023-07-31T02:28:12;99777.06;;;14.70;100.00
72640;BME280;60683;51.730;8.762;2023-07-31T02:30:39;99771.38;;;14.72;100.00
72640;BME280;60683;51.730;8.762;2023-07-31T02:33:09;99774.09;;;14.77;100.00
72640;BME280;60683;51.730;8.762;2023-07-31T02:35:36;99766.50;;;14.69;100.00
72640;BME280;60683;51.730;8.762;2023-07-31T02:38:03;99766.22;;;14.70;100.00
72640;BME280;60683;51.730;8.762;2023-07-31T02:40:31;99764.34;;;14.71;100.00
72640;BME280;60683;51.730;8.762;2023-07-31T02:42:59;99767.31;;;14.79;100.00
72640;BME280;60683;51.730;8.762;2023-07-31T02:45:26;99765.69;;;14.83;100.00
72640;BME280;60683;51.730;8.762;2023-07-31T02:47:54;99763.53;;;14.80;100.00
72640;BME280;60683;51.730;8.762;2023-07-31T02:50:23;99765.44;;;14.85;100.00
72640;BME280;60683;51.730;8.762;2023-07-31T02:52:50;99763.28;;;14.87;100.00
72640;BME280;60683;51.730;8.762;2023-07-31T02:55:17;99758.66;;;14.87;100.00
72640;BME280;60683;51.730;8.762;2023-07-31T02:57:45;99757.03;;;14.92;100.00
72640;BME280;60683;51.730;8.762;2023-07-31T03:00:13;99753.81;;;14.95;100.00
72640;BME280;60683;51.730;8.762;2023-07-31T03:02:41;99763.28;;;14.97;100.00
72640;BME280;60683;51.730;8.762;2023-07-31T03:05:09;99754.34;;;15.02;100.00
72640;BME280;60683;51.730;8.762;2023-07-31T03:07:38;99759.44;;;15.08;100.00
72640;BME280;60683;51.730;8.762;2023-07-31T03:10:06;99758.09;;;15.16;100.00
72640;BME280;60683;51.730;8.762;2023-07-31T03:12:34;99752.69;;;15.21;100.00
72640;BME280;60683;51.730;8.762;2023-07-31T03:15:02;99755.38;;;15.21;100.00
72640;BME280;60683;51.730;8.762;2023-07-31T03:17:30;99762.41;;;15.27;100.00
72640;BME280;60683;51.730;8.762;2023-07-31T03:19:58;99756.72;;;15.29;100.00
72640;BME280;60683;51.730;8.762;2023-07-31T03:22:26;99757.28;;;15.31;100.00
72640;BME280;60683;51.730;8.762;2023-07-31T03:24:55;99759.72;;;15.32;100.00
72640;BME280;60683;51.730;8.762;2023-07-31T03:27:24;99763.50;;;15.36;100.00
72640;BME280;60683;51.730;8.762;2023-07-31T03:29:51;99754.03;;;15.29;100.00
72640;BME280;60683;51.730;8.762;2023-07-31T03:32:20;99765.94;;;15.33;100.00
72640;BME280;60683;51.730;8.762;2023-07-31T03:34:49;99757.00;;;15.32;100.00
72640;BME280;60683;51.730;8.762;2023-07-31T03:37:17;99761.06;;;15.35;100.00
72640;BME280;60683;51.730;8.762;2023-07-31T03:39:44;99765.13;;;15.37;100.00
72640;BME280;60683;51.730;8.762;2023-07-31T03:42:13;99760.78;;;15.36;100.00
72640;BME280;60683;51.730;8.762;2023-07-31T03:44:40;99759.44;;;15.39;100.00
72640;BME280;60683;51.730;8.762;2023-07-31T03:47:08;99751.03;;;15.35;100.00
72640;BME280;60683;51.730;8.762;2023-07-31T03:49:36;99765.94;;;15.38;99.77
72640;BME280;60683;51.730;8.762;2023-07-31T03:52:05;99758.06;;;15.41;98.63
72640;BME280;60683;51.730;8.762;2023-07-31T03:54:32;99751.84;;;15.41;99.44
72640;BME280;60683;51.730;8.762;2023-07-31T03:57:00;99750.75;;;15.42;98.53
72640;BME280;60683;51.730;8.762;2023-07-31T03:59:29;99739.91;;;15.42;97.68
72640;BME280;60683;51.730;8.762;2023-07-31T04:01:57;99750.47;;;15.43;97.64
72640;BME280;60683;51.730;8.762;2023-07-31T04:04:25;99746.97;;;15.43;97.69
72640;BME280;60683;51.730;8.762;2023-07-31T04:06:52;99757.53;;;15.44;97.84
72640;BME280;60683;51.730;8.762;2023-07-31T04:09:20;99750.22;;;15.45;96.65
72640;BME280;60683;51.730;8.762;2023-07-31T04:11:48;99746.13;;;15.47;95.75
72640;BME280;60683;51.730;8.762;2023-07-31T04:14:15;99761.03;;;15.50;95.59
72640;BME280;60683;51.730;8.762;2023-07-31T04:16:44;99747.50;;;15.45;95.42
72640;BME280;60683;51.730;8.762;2023-07-31T04:19:11;99751.28;;;15.44;96.07
72640;BME280;60683;51.730;8.762;2023-07-31T04:21:42;99751.53;;;15.52;94.38
72640;BME280;60683;51.730;8.762;2023-07-31T04:24:09;99756.69;;;15.54;94.23
72640;BME280;60683;51.730;8.762;2023-07-31T04:26:37;99756.97;;;15.52;94.35
72640;BME280;60683;51.730;8.762;2023-07-31T04:29:04;99740.72;;;15.52;93.41
72640;BME280;60683;51.730;8.762;2023-07-31T04:31:33;99752.91;;;15.50;94.29
72640;BME280;60683;51.730;8.762;2023-07-31T04:34:02;99754.25;;;15.52;94.00
72640;BME280;60683;51.730;8.762;2023-07-31T04:36:30;99749.91;;;15.51;94.23
72640;BME280;60683;51.730;8.762;2023-07-31T04:38:58;99747.50;;;15.50;94.56
72640;BME280;60683;51.730;8.762;2023-07-31T04:41:26;99746.69;;;15.49;93.91
72640;BME280;60683;51.730;8.762;2023-07-31T04:43:54;99748.28;;;15.55;92.58
72640;BME280;60683;51.730;8.762;2023-07-31T04:46:21;99749.09;;;15.51;92.96
72640;BME280;60683;51.730;8.762;2023-07-31T04:48:49;99751.53;;;15.52;92.71
72640;BME280;60683;51.730;8.762;2023-07-31T04:51:18;99739.63;;;15.53;91.99
72640;BME280;60683;51.730;8.762;2023-07-31T04:53:47;99748.28;;;15.55;91.64
72640;BME280;60683;51.730;8.762;2023-07-31T04:56:15;99754.53;;;15.56;91.64
72640;BME280;60683;51.730;8.762;2023-07-31T04:58:42;99753.69;;;15.61;90.34
72640;BME280;60683;51.730;8.762;2023-07-31T05:01:10;99747.78;;;15.59;91.07
72640;BME280;60683;51.730;8.762;2023-07-31T05:03:38;99745.88;;;15.59;90.26
72640;BME280;60683;51.730;8.762;2023-07-31T05:06:06;99748.00;;;15.62;90.27
72640;BME280;60683;51.730;8.762;2023-07-31T05:08:34;99742.84;;;15.66;90.24
72640;BME280;60683;51.730;8.762;2023-07-31T05:11:02;99750.16;;;15.70;88.79
72640;BME280;60683;51.730;8.762;2023-07-31T05:13:30;99756.09;;;15.72;89.21
72640;BME280;60683;51.730;8.762;2023-07-31T05:15:57;99751.22;;;15.74;87.76
72640;BME280;60683;51.730;8.762;2023-07-31T05:18:24;99746.56;;;15.85;88.06
72640;BME280;60683;51.730;8.762;2023-07-31T05:20:52;99744.41;;;15.82;88.55
72640;BME280;60683;51.730;8.762;2023-07-31T05:23:19;99750.38;;;15.84;88.22
72640;BME280;60683;51.730;8.762;2023-07-31T05:25:48;99749.25;;;15.90;87.53
72640;BME280;60683;51.730;8.762;2023-07-31T05:28:16;99740.84;;;15.92;86.31
72640;BME280;60683;51.730;8.762;2023-07-31T05:30:43;99746.78;;;15.99;87.31
72640;BME280;60683;51.730;8.762;2023-07-31T05:33:10;99748.41;;;16.00;87.71
72640;BME280;60683;51.730;8.762;2023-07-31T05:35:38;99742.44;;;16.03;86.81
72640;BME280;60683;51.730;8.762;2023-07-31T05:38:05;99753.81;;;16.05;87.17
72640;BME280;60683;51.730;8.762;2023-07-31T05:40:33;99748.13;;;16.06;87.03
72640;BME280;60683;51.730;8.762;2023-07-31T05:43:02;99748.94;;;16.07;86.25
72640;BME280;60683;51.730;8.762;2023-07-31T05:45:29;99755.97;;;16.08;86.63
72640;BME280;60683;51.730;8.762;2023-07-31T05:47:57;99751.34;;;16.08;86.20
72640;BME280;60683;51.730;8.762;2023-07-31T05:50:24;99751.34;;;16.08;86.14
72640;BME280;60683;51.730;8.762;2023-07-31T05:52:52;99750.81;;;16.11;86.13
72640;BME280;60683;51.730;8.762;2023-07-31T05:55:19;99749.41;;;16.14;86.26
72640;BME280;60683;51.730;8.762;2023-07-31T05:57:47;99748.59;;;16.13;85.73
72640;BME280;60683;51.730;8.762;2023-07-31T06:00:16;99751.31;;;16.13;86.74
72640;BME280;60683;51.730;8.762;2023-07-31T06:02:44;99745.59;;;16.15;86.53
72640;BME280;60683;51.730;8.762;2023-07-31T06:05:12;99750.22;;;16.14;87.07
72640;BME280;60683;51.730;8.762;2023-07-31T06:07:39;99749.69;;;16.12;86.78
72640;BME280;60683;51.730;8.762;2023-07-31T06:10:07;99741.00;;;16.15;86.96
72640;BME280;60683;51.730;8.762;2023-07-31T06:12:35;99740.72;;;16.17;86.95
72640;BME280;60683;51.730;8.762;2023-07-31T06:15:03;99745.84;;;16.18;86.74
72640;BME280;60683;51.730;8.762;2023-07-31T06:17:33;99732.81;;;16.20;86.83
72640;BME280;60683;51.730;8.762;2023-07-31T06:20:00;99740.13;;;16.25;86.62
72640;BME280;60683;51.730;8.762;2023-07-31T06:22:31;99734.66;;;16.35;86.60
72640;BME280;60683;51.730;8.762;2023-07-31T06:24:58;99736.19;;;16.46;86.33
72640;BME280;60683;51.730;8.762;2023-07-31T06:27:25;99740.25;;;16.49;86.15
72640;BME280;60683;51.730;8.762;2023-07-31T06:29:53;99742.69;;;16.50;85.08
72640;BME280;60683;51.730;8.762;2023-07-31T06:32:20;99729.13;;;16.50;85.15
72640;BME280;60683;51.730;8.762;2023-07-31T06:34:49;99722.56;;;16.57;85.26
72640;BME280;60683;51.730;8.762;2023-07-31T06:37:16;99729.63;;;16.58;84.91
72640;BME280;60683;51.730;8.762;2023-07-31T06:39:44;99716.59;;;16.60;85.14
72640;BME280;60683;51.730;8.762;2023-07-31T06:42:11;99720.63;;;16.62;85.19
72640;BME280;60683;51.730;8.762;2023-07-31T06:44:39;99709.00;;;16.57;85.77
72640;BME280;60683;51.730;8.762;2023-07-31T06:47:09;99718.56;;;16.49;86.63
72640;BME280;60683;51.730;8.762;2023-07-31T06:49:36;99709.94;;;16.37;87.58
72640;BME280;60683;51.730;8.762;2023-07-31T06:52:06;99711.94;;;16.21;89.37
72640;BME280;60683;51.730;8.762;2023-07-31T06:54:34;99706.81;;;16.14;89.75
72640;BME280;60683;51.730;8.762;2023-07-31T06:57:01;99709.59;;;16.09;90.30
72640;BME280;60683;51.730;8.762;2023-07-31T06:59:28;99710.19;;;16.01;91.11
72640;BME280;60683;51.730;8.762;2023-07-31T07:01:56;99703.09;;;16.05;92.24
72640;BME280;60683;51.730;8.762;2023-07-31T07:04:23;99700.88;;;16.12;91.54
72640;BME280;60683;51.730;8.762;2023-07-31T07:06:50;99696.50;;;16.16;92.27
72640;BME280;60683;51.730;8.762;2023-07-31T07:09:19;99694.28;;;16.23;92.99
72640;BME280;60683;51.730;8.762;2023-07-31T07:11:46;99698.09;;;16.22;91.80
72640;BME280;60683;51.730;8.762;2023-07-31T07:14:14;99696.69;;;16.30;91.57
72640;BME280;60683;51.730;8.762;2023-07-31T07:16:41;99692.31;;;16.39;91.56
72640;BME280;60683;51.730;8.762;2023-07-31T07:19:09;99684.97;;;16.40;91.87
72640;BME280;60683;51.730;8.762;2023-07-31T07:21:36;99688.19;;;16.47;91.69
72640;BME280;60683;51.730;8.762;2023-07-31T07:24:04;99693.34;;;16.43;88.58
72640;BME280;60683;51.730;8.762;2023-07-31T07:26:33;99676.28;;;16.43;88.29
72640;BME280;60683;51.730;8.762;2023-07-31T07:29:01;99680.88;;;16.42;88.58
72640;BME280;60683;51.730;8.762;2023-07-31T07:31:28;99683.88;;;16.41;89.67
72640;BME280;60683;51.730;8.762;2023-07-31T07:33:55;99670.03;;;16.42;89.13
72640;BME280;60683;51.730;8.762;2023-07-31T07:36:23;99674.09;;;16.45;88.96
72640;BME280;60683;51.730;8.762;2023-07-31T07:38:50;99672.47;;;16.44;89.47
72640;BME280;60683;51.730;8.762;2023-07-31T07:41:18;99671.66;;;16.43;89.96
72640;BME280;60683;51.730;8.762;2023-07-31T07:43:47;99683.31;;;16.44;90.21
72640;BME280;60683;51.730;8.762;2023-07-31T07:46:14;99694.69;;;16.46;90.46
72640;BME280;60683;51.730;8.762;2023-07-31T07:48:42;99691.97;;;16.46;90.86
72640;BME280;60683;51.730;8.762;2023-07-31T07:51:10;99712.88;;;16.45;91.89
72640;BME280;60683;51.730;8.762;2023-07-31T07:53:37;99715.97;;;16.29;93.03
72640;BME280;60683;51.730;8.762;2023-07-31T07:56:05;99714.41;;;16.17;95.48
72640;BME280;60683;51.730;8.762;2023-07-31T07:58:33;99726.69;;;16.10;96.52
72640;BME280;60683;51.730;8.762;2023-07-31T08:01:02;99719.69;;;15.99;97.65
72640;BME280;60683;51.730;8.762;2023-07-31T08:03:29;99719.16;;;15.97;98.22
72640;BME280;60683;51.730;8.762;2023-07-31T08:05:58;99718.88;;;15.98;99.00
72640;BME280;60683;51.730;8.762;2023-07-31T08:08:26;99713.19;;;15.95;99.61
72640;BME280;60683;51.730;8.762;2023-07-31T08:10:53;99712.66;;;15.93;100.00
72640;BME280;60683;51.730;8.762;2023-07-31T08:13:21;99709.09;;;16.02;100.00
72640;BME280;60683;51.730;8.762;2023-07-31T08:15:49;99703.69;;;15.97;99.56
72640;BME280;60683;51.730;8.762;2023-07-31T08:18:19;99704.09;;;16.19;99.81
72640;BME280;60683;51.730;8.762;2023-07-31T08:20:47;99692.06;;;16.36;100.00
72640;BME280;60683;51.730;8.762;2023-07-31T08:23:15;99684.88;;;16.55;98.20
72640;BME280;60683;51.730;8.762;2023-07-31T08:25:42;99678.31;;;16.61;97.04
72640;BME280;60683;51.730;8.762;2023-07-31T08:28:10;99679.88;;;16.67;96.54
72640;BME280;60683;51.730;8.762;2023-07-31T08:30:37;99674.41;;;16.72;94.54
72640;BME280;60683;51.730;8.762;2023-07-31T08:33:05;99675.22;;;16.73;94.86
72640;BME280;60683;51.730;8.762;2023-07-31T08:35:33;99666.28;;;16.72;95.25
72640;BME280;60683;51.730;8.762;2023-07-31T08:38:01;99668.91;;;16.82;96.29
72640;BME280;60683;51.730;8.762;2023-07-31T08:40:28;99663.66;;;16.91;94.73
72640;BME280;60683;51.730;8.762;2023-07-31T08:42:56;99659.47;;;17.04;95.30
72640;BME280;60683;51.730;8.762;2023-07-31T08:45:28;99655.03;;;17.13;94.62
72640;BME280;60683;51.730;8.762;2023-07-31T08:47:56;99658.59;;;17.32;93.73
72640;BME280;60683;51.730;8.762;2023-07-31T08:50:23;99649.34;;;17.33;91.38
72640;BME280;60683;51.730;8.762;2023-07-31T08:52:52;99644.66;;;17.39;91.07
72640;BME280;60683;51.730;8.762;2023-07-31T08:55:20;99650.34;;;17.42;91.01
72640;BME280;60683;51.730;8.762;2023-07-31T08:57:51;99653.09;;;17.37;90.88
72640;BME280;60683;51.730;8.762;2023-07-31T09:00:19;99644.91;;;17.18;90.45
72640;BME280;60683;51.730;8.762;2023-07-31T09:02:54;99650.31;;;17.18;91.30
72640;BME280;60683;51.730;8.762;2023-07-31T09:05:23;99643.06;;;17.14;90.44
72640;BME280;60683;51.730;8.762;2023-07-31T09:07:53;99642.03;;;17.10;90.17
72640;BME280;60683;51.730;8.762;2023-07-31T09:10:23;99643.75;;;17.01;90.33
72640;BME280;60683;51.730;8.762;2023-07-31T09:12:52;99643.50;;;16.97;90.79
72640;BME280;60683;51.730;8.762;2023-07-31T09:15:19;99635.66;;;16.96;91.12
72640;BME280;60683;51.730;8.762;2023-07-31T09:17:47;99633.13;;;17.04;90.07
72640;BME280;60683;51.730;8.762;2023-07-31T09:20:16;99624.34;;;17.12;90.74
72640;BME280;60683;51.730;8.762;2023-07-31T09:22:45;99633.81;;;17.15;89.55
72640;BME280;60683;51.730;8.762;2023-07-31T09:25:17;99627.59;;;17.14;89.45
72640;BME280;60683;51.730;8.762;2023-07-31T09:27:46;99628.88;;;17.17;89.63
72640;BME280;60683;51.730;8.762;2023-07-31T09:30:13;99632.06;;;17.24;88.51
72640;BME280;60683;51.730;8.762;2023-07-31T09:32:42;99626.41;;;17.44;89.31
72640;BME280;60683;51.730;8.762;2023-07-31T09:35:20;99620.84;;;17.54;87.00
72640;BME280;60683;51.730;8.762;2023-07-31T09:37:49;99617.75;;;17.61;87.52
72640;BME280;60683;51.730;8.762;2023-07-31T09:40:28;99610.78;;;17.55;85.90
72640;BME280;60683;51.730;8.762;2023-07-31T09:42:57;99618.84;;;17.65;86.93
72640;BME280;60683;51.730;8.762;2023-07-31T09:45:25;99608.66;;;17.71;84.62
72640;BME280;60683;51.730;8.762;2023-07-31T09:47:54;99608.31;;;17.77;84.98
72640;BME280;60683;51.730;8.762;2023-07-31T09:50:24;99597.06;;;17.84;84.59
72640;BME280;60683;51.730;8.762;2023-07-31T09:52:52;99600.88;;;17.83;84.64
72640;BME280;60683;51.730;8.762;2023-07-31T09:55:19;99598.97;;;18.02;85.09
72640;BME280;60683;51.730;8.762;2023-07-31T09:57:48;99591.56;;;18.08;81.90
72640;BME280;60683;51.730;8.762;2023-07-31T10:00:17;99596.13;;;18.26;81.50
72640;BME280;60683;51.730;8.762;2023-07-31T10:02:46;99588.91;;;18.35;81.38
72640;BME280;60683;51.730;8.762;2023-07-31T10:05:15;99589.69;;;18.55;80.44
72640;BME280;60683;51.730;8.762;2023-07-31T10:07:47;99586.09;;;18.73;82.34
72640;BME280;60683;51.730;8.762;2023-07-31T10:10:16;99583.69;;;18.71;78.51
72640;BME280;60683;51.730;8.762;2023-07-31T10:12:45;99586.50;;;18.66;79.22
72640;BME280;60683;51.730;8.762;2023-07-31T10:15:15;99582.88;;;18.84;79.83
72640;BME280;60683;51.730;8.762;2023-07-31T10:17:43;99579.25;;;18.75;77.28
72640;BME280;60683;51.730;8.762;2023-07-31T10:20:11;99569.00;;;18.53;78.04
72640;BME280;60683;51.730;8.762;2023-07-31T10:22:39;99576.13;;;18.36;78.72
72640;BME280;60683;51.730;8.762;2023-07-31T10:25:08;99579.44;;;18.33;78.99
72640;BME280;60683;51.730;8.762;2023-07-31T10:27:38;99579.50;;;18.28;78.94
72640;BME280;60683;51.730;8.762;2023-07-31T10:30:08;99576.38;;;18.20;79.17
72640;BME280;60683;51.730;8.762;2023-07-31T10:32:40;99569.78;;;18.08;79.85
72640;BME280;60683;51.730;8.762;2023-07-31T10:35:09;99570.00;;;18.11;81.04
72640;BME280;60683;51.730;8.762;2023-07-31T10:37:39;99570.44;;;18.18;82.11
72640;BME280;60683;51.730;8.762;2023-07-31T10:40:10;99571.03;;;18.15;82.55
72640;BME280;60683;51.730;8.762;2023-07-31T10:42:45;99578.69;;;18.13;82.10
72640;BME280;60683;51.730;8.762;2023-07-31T10:45:13;99577.88;;;17.94;83.64
72640;BME280;60683;51.730;8.762;2023-07-31T10:47:44;99578.84;;;17.84;84.16
72640;BME280;60683;51.730;8.762;2023-07-31T10:50:14;99583.69;;;17.69;85.45
72640;BME280;60683;51.730;8.762;2023-07-31T10:52:46;99589.63;;;17.52;86.09
72640;BME280;60683;51.730;8.762;2023-07-31T10:55:15;99584.53;;;17.45;88.12
72640;BME280;60683;51.730;8.762;2023-07-31T10:57:44;99587.16;;;17.32;90.83
72640;BME280;60683;51.730;8.762;2023-07-31T11:00:18;99584.94;;;17.15;91.99
72640;BME280;60683;51.730;8.762;2023-07-31T11:03:03;99594.63;;;17.21;93.68
72640;BME280;60683;51.730;8.762;2023-07-31T11:08:22;99582.41;;;17.18;95.46
72640;BME280;60683;51.730;8.762;2023-07-31T11:10:51;99570.03;;;17.31;94.63
72640;BME280;60683;51.730;8.762;2023-07-31T11:13:33;99568.69;;;17.52;92.41
72640;BME280;60683;51.730;8.762;2023-07-31T11:16:01;99572.50;;;17.51;90.06
72640;BME280;60683;51.730;8.762;2023-07-31T11:18:30;99570.00;;;17.55;88.82
72640;BME280;60683;51.730;8.762;2023-07-31T11:20:57;99572.38;;;17.62;88.03
72640;BME280;60683;51.730;8.762;2023-07-31T11:23:25;99566.28;;;17.70;88.30
72640;BME280;60683;51.730;8.762;2023-07-31T11:25:59;99558.19;;;17.83;87.96
72640;BME280;60683;51.730;8.762;2023-07-31T11:28:31;99565.97;;;17.90;87.24
72640;BME280;60683;51.730;8.762;2023-07-31T11:31:00;99567.00;;;18.13;87.45
72640;BME280;60683;51.730;8.762;2023-07-31T11:33:27;99547.97;;;18.27;84.21
72640;BME280;60683;51.730;8.762;2023-07-31T11:35:56;99546.28;;;18.31;84.81
72640;BME280;60683;51.730;8.762;2023-07-31T11:38:24;99552.16;;;18.51;85.46
72640;BME280;60683;51.730;8.762;2023-07-31T11:40:52;99552.75;;;18.48;84.01
72640;BME280;60683;51.730;8.762;2023-07-31T11:43:21;99542.88;;;18.39;83.76
72640;BME280;60683;51.730;8.762;2023-07-31T11:45:49;99552.06;;;18.10;83.52
72640;BME280;60683;51.730;8.762;2023-07-31T11:48:21;99547.22;;;18.07;84.60
72640;BME280;60683;51.730;8.762;2023-07-31T11:50:51;99537.44;;;18.06;83.61
72640;BME280;60683;51.730;8.762;2023-07-31T11:53:24;99536.63;;;18.06;83.71
72640;BME280;60683;51.730;8.762;2023-07-31T11:55:52;99546.72;;;18.05;83.26
72640;BME280;60683;51.730;8.762;2023-07-31T11:58:20;99533.97;;;18.19;83.69
72640;BME280;60683;51.730;8.762;2023-07-31T12:00:49;99535.91;;;18.00;82.81
72640;BME280;60683;51.730;8.762;2023-07-31T12:03:17;99547.47;;;17.92;83.57
72640;BME280;60683;51.730;8.762;2023-07-31T12:05:47;99550.78;;;17.89;85.02
72640;BME280;60683;51.730;8.762;2023-07-31T12:08:15;99546.28;;;17.79;84.56
72640;BME280;60683;51.730;8.762;2023-07-31T12:10:44;99527.84;;;17.58;86.44
72640;BME280;60683;51.730;8.762;2023-07-31T12:13:20;99544.81;;;17.68;87.69
72640;BME280;60683;51.730;8.762;2023-07-31T12:15:48;99545.63;;;17.69;88.80
72640;BME280;60683;51.730;8.762;2023-07-31T12:18:19;99539.97;;;17.84;88.75
72640;BME280;60683;51.730;8.762;2023-07-31T12:20:48;99537.69;;;17.91;87.47
72640;BME280;60683;51.730;8.762;2023-07-31T12:23:20;99529.28;;;18.06;87.52
72640;BME280;60683;51.730;8.762;2023-07-31T12:26:01;99535.38;;;18.31;86.17
72640;BME280;60683;51.730;8.762;2023-07-31T12:28:30;99533.47;;;18.31;84.17
72640;BME280;60683;51.730;8.762;2023-07-31T12:30:57;99530.41;;;18.51;84.67
72640;BME280;60683;51.730;8.762;2023-07-31T12:33:30;99519.13;;;18.72;82.74
72640;BME280;60683;51.730;8.762;2023-07-31T12:36:00;99516.72;;;18.84;84.09
72640;BME280;60683;51.730;8.762;2023-07-31T12:38:28;99522.06;;;18.75;82.19
72640;BME280;60683;51.730;8.762;2023-07-31T12:40:56;99518.91;;;18.55;81.53
72640;BME280;60683;51.730;8.762;2023-07-31T12:43:25;99514.56;;;18.53;82.12
72640;BME280;60683;51.730;8.762;2023-07-31T12:45:54;99514.84;;;18.38;82.06
72640;BME280;60683;51.730;8.762;2023-07-31T12:48:22;99518.06;;;18.40;82.00
72640;BME280;60683;51.730;8.762;2023-07-31T12:50:49;99513.63;;;18.31;82.19
72640;BME280;60683;51.730;8.762;2023-07-31T12:53:17;99515.53;;;18.30;81.47
72640;BME280;60683;51.730;8.762;2023-07-31T12:55:44;99518.03;;;18.27;82.57
72640;BME280;60683;51.730;8.762;2023-07-31T12:58:12;99520.38;;;18.19;82.58
72640;BME280;60683;51.730;8.762;2023-07-31T13:00:41;99515.41;;;18.22;81.78
72640;BME280;60683;51.730;8.762;2023-07-31T13:03:09;99515.69;;;18.06;82.61
72640;BME280;60683;51.730;8.762;2023-07-31T13:05:36;99522.53;;;18.04;81.94
72640;BME280;60683;51.730;8.762;2023-07-31T13:08:04;99530.47;;;18.00;82.54
72640;BME280;60683;51.730;8.762;2023-07-31T13:10:31;99528.84;;;17.99;82.13